Minneapolis-St Paul International/Wold-Chamberlain Airport
KMSP : now visible

Airfield :











YOU CAN JOIN US ON...

 
LOGIN :

Register | Disclaimer

   EN    FR    IT 

 









Legend :    VFR   Marginal VFR   IFR   Intensive IFR   Very Intensive IFR
Visi :
Ceiling :
>= 8 km
>= 3000ft
5 to 8 km
1000 to 3000 ft
1500m to 5 km
500 to 1000 ft
800 to 1500m
200 to 500 ft
< 800m
< 200 ft
Symbols :   Thunderstorms  Fog  Heavy snow  Heavy precipitations  Wind > 20 kt







- Airport Elevation : 841 ft
- IATA code : MSP


KMSP - Minneapolis-St Paul International/Wold-Chamberlain

CURRENT METAR :
  • 260253Z 14011KT 10SM SCT080 BKN120 OVC140 19/14 A2991 RMK AO2 RAB0154E36 SLP125 PRESENT WX VCSH P0000 60000 T01940144 56004 $

EXPIRED METARs :
  • 260153Z 15010KT 10SM FEW090 OVC110 20/14 A2991 RMK AO2 RAE00 SLP127 PRESENT WX VCSH P0000 T02000144 $
  • 260053Z 13013G21KT 10SM -RA BKN060 OVC110 20/14 A2991 RMK AO2 RAB34 SLP126 P0000 T02000144 $

TAF KMSP
Valid from the 26 at 03:00 until the 27 at 06:00 UTC


260250Z 2603/2706 15009KT P6SM SCT015 OVC035
FM261000 15008KT 6SM BR VCSH OVC018
FM261500 17006KT 5SM SHRA BR SCT008 OVC012
TEMPO 2617/2621 3SM TSRA OVC008CB
FM262100 23005KT P6SM VCSH SCT008 OVC015
FM270300 27008KT P6SM SCT017 BKN035
No reported NOTAMs for that airfield.



MET'MAP, your aeronautical weather chart ! - Copyright ORBIFLY December 2007 - Disclaimer

ORBIFLY MET'MAP TEAM :

Programming & Development : Alexandra Zaïnal
Concept & Development : Baudouin d'Aumeries
Co-Development & Prog : Marc-Olivier Méhu
Technical & hardware support : Manuel Goepfert

Contact : metmap@orbifly.com




SOURCES & CREDITS :

   NOAA       Earth
Advisory